Portada
METAR-TAF:

METAR-TAF

Aeroports :

Chiclayo, Perú

latitud: 06-47S, longitud: 079-50W, altitud: 29 m

Observació

L'informe es va fer fa 2 hores i 38 minuts, a les 00:00 UTC
Vent 18 kt del Sud
Temperatura 20°C
Humitat 73%
Pressió 1012 hPa
Visibilitat 10 km o més
sense núvols per sota de 1500 mi sense presència de cumulonimbus.

METAR: SPHI 050000Z 18018KT CAVOK 20/15 Q1012 RMK BIRD HAZARD RWY 19/01 PP000

Hora: 21:38 (02:38 UTC)

Pronòstic

L'informe es va fer fa 3 hores i 38 minuts, a les 23:00 UTC
Pronòstic vàlid del 05 a les 00 UTC al 05 a les 24 UTC
Vent 17 kt del Sud
Visibilitat 10 km o més
sense núvols per sota de 1500 mi sense presència de cumulonimbus.
Evolucionant progressivament
l' 05 a les 09 UTC al 05 a les 11 UTC
Vent 5 kt del Sud
Evolucionant progressivament
l' 05 a les 17 UTC al 05 a les 19 UTC
Vent 20 kt del Sud/Sud-Oest

TAF: SPHI 042300Z 0500/0524 19017KT CAVOK TX26/0519Z TN18/0511Z BECMG 0509/0511 18005KT BECMG 0517/0519 20020KT

Observacions i pronòstics meteorològics de més de 4000 aeroports (METAR i TAF).

Les estacions disponibles són els punts grocs i vermells al mapa.

Posi el ratolí al punt desitjat per veure el nom de l'estació.

Feu clic per veure les observacions i els pronòstics meteorològics.

Per canviar el mapa: feu clic els botons verds amb una creu de color negre per apropar; al botó verd amb un guió per allunyar la imatge; o en les fletxes verdes per a mapes adjacents.


METAR-TAF: